sensor_id;sensor_type;location;lat;lon;timestamp;P1;durP1;ratioP1;P2;durP2;ratioP2
38715;SDS011;24833;49.324;8.694;2022-12-18T00:01:35;19.88;;;10.57;;
38715;SDS011;24833;49.324;8.694;2022-12-18T00:04:04;19.00;;;11.50;;
38715;SDS011;24833;49.324;8.694;2022-12-18T00:06:34;17.60;;;8.23;;
38715;SDS011;24833;49.324;8.694;2022-12-18T00:09:02;18.48;;;9.77;;
38715;SDS011;24833;49.324;8.694;2022-12-18T00:11:30;19.38;;;9.80;;
38715;SDS011;24833;49.324;8.694;2022-12-18T00:13:58;20.30;;;9.88;;
38715;SDS011;24833;49.324;8.694;2022-12-18T00:16:27;22.73;;;10.90;;
38715;SDS011;24833;49.324;8.694;2022-12-18T00:18:57;22.20;;;12.10;;
38715;SDS011;24833;49.324;8.694;2022-12-18T00:21:26;21.83;;;12.20;;
38715;SDS011;24833;49.324;8.694;2022-12-18T00:23:55;20.50;;;10.98;;
38715;SDS011;24833;49.324;8.694;2022-12-18T00:26:23;20.58;;;11.50;;
38715;SDS011;24833;49.324;8.694;2022-12-18T00:29:02;21.25;;;10.70;;
38715;SDS011;24833;49.324;8.694;2022-12-18T00:31:34;21.20;;;12.00;;
38715;SDS011;24833;49.324;8.694;2022-12-18T00:34:03;21.08;;;10.82;;
38715;SDS011;24833;49.324;8.694;2022-12-18T00:36:33;18.52;;;11.10;;
38715;SDS011;24833;49.324;8.694;2022-12-18T00:39:02;19.67;;;10.55;;
38715;SDS011;24833;49.324;8.694;2022-12-18T00:41:30;22.25;;;11.13;;
38715;SDS011;24833;49.324;8.694;2022-12-18T00:44:17;20.42;;;9.60;;
38715;SDS011;24833;49.324;8.694;2022-12-18T00:46:46;22.60;;;11.05;;
38715;SDS011;24833;49.324;8.694;2022-12-18T00:49:15;19.52;;;10.57;;
38715;SDS011;24833;49.324;8.694;2022-12-18T00:51:45;22.40;;;10.68;;
38715;SDS011;24833;49.324;8.694;2022-12-18T00:54:13;24.27;;;11.80;;
38715;SDS011;24833;49.324;8.694;2022-12-18T00:56:40;21.10;;;10.63;;
38715;SDS011;24833;49.324;8.694;2022-12-18T00:59:16;17.65;;;10.48;;
38715;SDS011;24833;49.324;8.694;2022-12-18T01:01:44;24.08;;;10.63;;
38715;SDS011;24833;49.324;8.694;2022-12-18T01:04:12;25.50;;;10.65;;
38715;SDS011;24833;49.324;8.694;2022-12-18T01:06:39;24.80;;;11.45;;
38715;SDS011;24833;49.324;8.694;2022-12-18T01:09:06;21.15;;;10.63;;
38715;SDS011;24833;49.324;8.694;2022-12-18T01:11:35;23.30;;;11.45;;
38715;SDS011;24833;49.324;8.694;2022-12-18T01:14:03;21.85;;;10.98;;
38715;SDS011;24833;49.324;8.694;2022-12-18T01:16:30;21.80;;;11.45;;
38715;SDS011;24833;49.324;8.694;2022-12-18T01:18:57;23.38;;;11.65;;
38715;SDS011;24833;49.324;8.694;2022-12-18T01:21:26;23.42;;;10.95;;
38715;SDS011;24833;49.324;8.694;2022-12-18T01:23:54;22.30;;;10.63;;
38715;SDS011;24833;49.324;8.694;2022-12-18T01:26:22;23.52;;;11.43;;
38715;SDS011;24833;49.324;8.694;2022-12-18T01:28:51;22.17;;;10.77;;
38715;SDS011;24833;49.324;8.694;2022-12-18T01:31:29;21.52;;;11.15;;
38715;SDS011;24833;49.324;8.694;2022-12-18T01:34:01;16.88;;;8.70;;
38715;SDS011;24833;49.324;8.694;2022-12-18T01:36:33;22.77;;;10.73;;
38715;SDS011;24833;49.324;8.694;2022-12-18T01:39:04;21.52;;;10.35;;
38715;SDS011;24833;49.324;8.694;2022-12-18T01:41:36;22.17;;;11.48;;
38715;SDS011;24833;49.324;8.694;2022-12-18T01:50:17;17.17;;;9.23;;
38715;SDS011;24833;49.324;8.694;2022-12-18T01:52:54;25.35;;;10.95;;
38715;SDS011;24833;49.324;8.694;2022-12-18T01:55:45;22.75;;;10.77;;
38715;SDS011;24833;49.324;8.694;2022-12-18T01:58:20;26.25;;;10.10;;
38715;SDS011;24833;49.324;8.694;2022-12-18T02:01:13;14.93;;;9.23;;
38715;SDS011;24833;49.324;8.694;2022-12-18T02:03:41;22.48;;;11.20;;
38715;SDS011;24833;49.324;8.694;2022-12-18T02:06:15;20.73;;;10.60;;
38715;SDS011;24833;49.324;8.694;2022-12-18T02:08:57;23.38;;;11.10;;
38715;SDS011;24833;49.324;8.694;2022-12-18T02:11:49;18.35;;;10.18;;
38715;SDS011;24833;49.324;8.694;2022-12-18T02:17:17;17.63;;;9.30;;
38715;SDS011;24833;49.324;8.694;2022-12-18T02:23:08;18.92;;;10.35;;
38715;SDS011;24833;49.324;8.694;2022-12-18T02:29:11;21.50;;;9.57;;
38715;SDS011;24833;49.324;8.694;2022-12-18T02:32:17;23.92;;;10.13;;
38715;SDS011;24833;49.324;8.694;2022-12-18T02:34:51;22.00;;;10.10;;
38715;SDS011;24833;49.324;8.694;2022-12-18T02:37:23;21.45;;;10.18;;
38715;SDS011;24833;49.324;8.694;2022-12-18T02:39:54;13.80;;;7.43;;
38715;SDS011;24833;49.324;8.694;2022-12-18T02:42:23;16.52;;;9.57;;
38715;SDS011;24833;49.324;8.694;2022-12-18T02:44:52;22.17;;;10.68;;
38715;SDS011;24833;49.324;8.694;2022-12-18T02:47:24;20.58;;;10.05;;
38715;SDS011;24833;49.324;8.694;2022-12-18T02:58:27;17.02;;;9.00;;
38715;SDS011;24833;49.324;8.694;2022-12-18T03:04:15;11.82;;;6.60;;
38715;SDS011;24833;49.324;8.694;2022-12-18T03:06:51;15.07;;;7.22;;
38715;SDS011;24833;49.324;8.694;2022-12-18T03:09:26;14.73;;;7.93;;
38715;SDS011;24833;49.324;8.694;2022-12-18T03:12:21;19.65;;;9.30;;
38715;SDS011;24833;49.324;8.694;2022-12-18T03:15:03;17.95;;;8.48;;
38715;SDS011;24833;49.324;8.694;2022-12-18T03:18:06;15.07;;;7.97;;
38715;SDS011;24833;49.324;8.694;2022-12-18T03:20:39;15.30;;;8.00;;
38715;SDS011;24833;49.324;8.694;2022-12-18T03:23:14;17.35;;;8.18;;
38715;SDS011;24833;49.324;8.694;2022-12-18T03:25:52;19.67;;;8.63;;
38715;SDS011;24833;49.324;8.694;2022-12-18T03:28:36;17.75;;;9.18;;
38715;SDS011;24833;49.324;8.694;2022-12-18T03:31:09;16.80;;;8.90;;
38715;SDS011;24833;49.324;8.694;2022-12-18T03:36:17;18.50;;;8.68;;
38715;SDS011;24833;49.324;8.694;2022-12-18T03:38:46;19.02;;;8.15;;
38715;SDS011;24833;49.324;8.694;2022-12-18T03:41:19;17.50;;;8.65;;
38715;SDS011;24833;49.324;8.694;2022-12-18T03:47:08;14.63;;;7.60;;
38715;SDS011;24833;49.324;8.694;2022-12-18T03:52:56;16.77;;;7.10;;
38715;SDS011;24833;49.324;8.694;2022-12-18T03:55:44;15.65;;;7.53;;
38715;SDS011;24833;49.324;8.694;2022-12-18T03:58:15;13.13;;;7.65;;
38715;SDS011;24833;49.324;8.694;2022-12-18T04:00:54;11.57;;;7.10;;
38715;SDS011;24833;49.324;8.694;2022-12-18T04:03:26;16.58;;;7.97;;
38715;SDS011;24833;49.324;8.694;2022-12-18T04:05:56;14.18;;;7.10;;
38715;SDS011;24833;49.324;8.694;2022-12-18T04:08:27;15.57;;;7.20;;
38715;SDS011;24833;49.324;8.694;2022-12-18T04:11:01;13.88;;;6.72;;
38715;SDS011;24833;49.324;8.694;2022-12-18T04:13:35;13.02;;;7.28;;
38715;SDS011;24833;49.324;8.694;2022-12-18T04:16:13;12.95;;;6.60;;
38715;SDS011;24833;49.324;8.694;2022-12-18T04:18:43;14.98;;;7.75;;
38715;SDS011;24833;49.324;8.694;2022-12-18T04:21:10;14.25;;;7.65;;
38715;SDS011;24833;49.324;8.694;2022-12-18T04:23:37;14.05;;;7.70;;
38715;SDS011;24833;49.324;8.694;2022-12-18T04:26:05;15.82;;;8.15;;
38715;SDS011;24833;49.324;8.694;2022-12-18T04:28:48;16.08;;;6.90;;
38715;SDS011;24833;49.324;8.694;2022-12-18T04:31:15;14.07;;;6.57;;
38715;SDS011;24833;49.324;8.694;2022-12-18T04:33:42;13.90;;;7.80;;
38715;SDS011;24833;49.324;8.694;2022-12-18T04:36:09;19.05;;;9.48;;
38715;SDS011;24833;49.324;8.694;2022-12-18T04:38:39;14.20;;;7.70;;
38715;SDS011;24833;49.324;8.694;2022-12-18T04:41:10;18.92;;;9.00;;
38715;SDS011;24833;49.324;8.694;2022-12-18T04:43:38;14.57;;;8.50;;
38715;SDS011;24833;49.324;8.694;2022-12-18T04:46:06;15.68;;;8.65;;
38715;SDS011;24833;49.324;8.694;2022-12-18T04:48:34;16.27;;;8.40;;
38715;SDS011;24833;49.324;8.694;2022-12-18T04:51:02;20.10;;;10.18;;
38715;SDS011;24833;49.324;8.694;2022-12-18T04:53:31;14.98;;;9.20;;
38715;SDS011;24833;49.324;8.694;2022-12-18T04:56:04;14.88;;;8.70;;
38715;SDS011;24833;49.324;8.694;2022-12-18T04:58:37;14.73;;;8.18;;
38715;SDS011;24833;49.324;8.694;2022-12-18T05:01:06;15.73;;;8.73;;
38715;SDS011;24833;49.324;8.694;2022-12-18T05:03:36;17.20;;;9.52;;
38715;SDS011;24833;49.324;8.694;2022-12-18T05:06:05;16.23;;;9.05;;
38715;SDS011;24833;49.324;8.694;2022-12-18T05:08:33;16.35;;;9.02;;
38715;SDS011;24833;49.324;8.694;2022-12-18T05:11:07;20.98;;;10.75;;
38715;SDS011;24833;49.324;8.694;2022-12-18T05:13:43;16.42;;;9.40;;
38715;SDS011;24833;49.324;8.694;2022-12-18T05:16:11;17.95;;;9.25;;
38715;SDS011;24833;49.324;8.694;2022-12-18T05:18:39;16.10;;;8.93;;
38715;SDS011;24833;49.324;8.694;2022-12-18T05:21:06;22.90;;;11.32;;
38715;SDS011;24833;49.324;8.694;2022-12-18T05:23:33;17.88;;;9.98;;
38715;SDS011;24833;49.324;8.694;2022-12-18T05:26:02;17.65;;;9.73;;
38715;SDS011;24833;49.324;8.694;2022-12-18T05:28:31;19.70;;;9.80;;
38715;SDS011;24833;49.324;8.694;2022-12-18T05:31:01;19.20;;;8.82;;
38715;SDS011;24833;49.324;8.694;2022-12-18T05:33:31;19.58;;;9.95;;
38715;SDS011;24833;49.324;8.694;2022-12-18T05:36:00;18.83;;;10.35;;
38715;SDS011;24833;49.324;8.694;2022-12-18T05:38:31;15.85;;;9.32;;
38715;SDS011;24833;49.324;8.694;2022-12-18T05:41:00;16.40;;;9.52;;
38715;SDS011;24833;49.324;8.694;2022-12-18T05:43:27;22.13;;;12.15;;
38715;SDS011;24833;49.324;8.694;2022-12-18T05:45:55;16.60;;;10.45;;
38715;SDS011;24833;49.324;8.694;2022-12-18T05:48:23;23.42;;;12.50;;
38715;SDS011;24833;49.324;8.694;2022-12-18T05:50:50;32.47;;;16.33;;
38715;SDS011;24833;49.324;8.694;2022-12-18T05:53:20;25.80;;;12.82;;
38715;SDS011;24833;49.324;8.694;2022-12-18T05:55:47;24.10;;;12.07;;
38715;SDS011;24833;49.324;8.694;2022-12-18T05:58:15;27.05;;;13.95;;
38715;SDS011;24833;49.324;8.694;2022-12-18T06:00:44;22.10;;;12.93;;
38715;SDS011;24833;49.324;8.694;2022-12-18T06:03:12;24.90;;;12.77;;
38715;SDS011;24833;49.324;8.694;2022-12-18T06:05:41;22.98;;;12.85;;
38715;SDS011;24833;49.324;8.694;2022-12-18T06:08:10;23.95;;;14.10;;
38715;SDS011;24833;49.324;8.694;2022-12-18T06:10:39;22.50;;;12.60;;
38715;SDS011;24833;49.324;8.694;2022-12-18T06:13:07;26.08;;;12.88;;
38715;SDS011;24833;49.324;8.694;2022-12-18T06:15:36;26.20;;;14.48;;
38715;SDS011;24833;49.324;8.694;2022-12-18T06:18:03;30.75;;;16.38;;
38715;SDS011;24833;49.324;8.694;2022-12-18T06:20:30;29.67;;;16.38;;
38715;SDS011;24833;49.324;8.694;2022-12-18T06:22:59;29.40;;;16.13;;
38715;SDS011;24833;49.324;8.694;2022-12-18T06:25:26;28.02;;;13.65;;
38715;SDS011;24833;49.324;8.694;2022-12-18T06:27:53;29.27;;;15.63;;
38715;SDS011;24833;49.324;8.694;2022-12-18T06:30:20;24.80;;;13.32;;
38715;SDS011;24833;49.324;8.694;2022-12-18T06:32:49;24.90;;;13.98;;
38715;SDS011;24833;49.324;8.694;2022-12-18T06:35:22;29.20;;;16.35;;
38715;SDS011;24833;49.324;8.694;2022-12-18T06:37:49;25.00;;;13.43;;
38715;SDS011;24833;49.324;8.694;2022-12-18T06:40:17;23.30;;;13.43;;
38715;SDS011;24833;49.324;8.694;2022-12-18T06:42:44;31.08;;;15.20;;
38715;SDS011;24833;49.324;8.694;2022-12-18T06:45:11;28.02;;;16.38;;
38715;SDS011;24833;49.324;8.694;2022-12-18T06:47:38;24.05;;;13.43;;
38715;SDS011;24833;49.324;8.694;2022-12-18T06:50:05;24.20;;;15.52;;
38715;SDS011;24833;49.324;8.694;2022-12-18T06:52:33;24.00;;;14.02;;
38715;SDS011;24833;49.324;8.694;2022-12-18T06:55:00;24.08;;;13.75;;
38715;SDS011;24833;49.324;8.694;2022-12-18T06:57:27;25.80;;;14.30;;
38715;SDS011;24833;49.324;8.694;2022-12-18T06:59:54;27.05;;;13.88;;
38715;SDS011;24833;49.324;8.694;2022-12-18T07:02:21;24.40;;;14.15;;
38715;SDS011;24833;49.324;8.694;2022-12-18T07:04:48;27.58;;;14.90;;
38715;SDS011;24833;49.324;8.694;2022-12-18T07:07:15;29.02;;;14.73;;
38715;SDS011;24833;49.324;8.694;2022-12-18T07:09:42;26.08;;;13.93;;
38715;SDS011;24833;49.324;8.694;2022-12-18T07:12:09;22.40;;;13.70;;
38715;SDS011;24833;49.324;8.694;2022-12-18T07:14:36;30.42;;;15.73;;
38715;SDS011;24833;49.324;8.694;2022-12-18T07:17:03;28.00;;;14.50;;
38715;SDS011;24833;49.324;8.694;2022-12-18T07:19:31;33.20;;;15.02;;
38715;SDS011;24833;49.324;8.694;2022-12-18T07:21:59;26.52;;;13.80;;
38715;SDS011;24833;49.324;8.694;2022-12-18T07:24:27;24.45;;;14.73;;
38715;SDS011;24833;49.324;8.694;2022-12-18T07:26:54;22.63;;;13.57;;
38715;SDS011;24833;49.324;8.694;2022-12-18T07:29:21;26.83;;;13.80;;
38715;SDS011;24833;49.324;8.694;2022-12-18T07:31:48;33.50;;;17.52;;
38715;SDS011;24833;49.324;8.694;2022-12-18T07:34:15;31.48;;;16.00;;
38715;SDS011;24833;49.324;8.694;2022-12-18T07:36:42;24.08;;;13.73;;
38715;SDS011;24833;49.324;8.694;2022-12-18T07:39:12;22.98;;;15.00;;
38715;SDS011;24833;49.324;8.694;2022-12-18T07:41:39;25.42;;;14.70;;
38715;SDS011;24833;49.324;8.694;2022-12-18T07:44:14;24.55;;;13.85;;
38715;SDS011;24833;49.324;8.694;2022-12-18T07:46:41;25.70;;;13.38;;
38715;SDS011;24833;49.324;8.694;2022-12-18T07:49:08;25.20;;;14.20;;
38715;SDS011;24833;49.324;8.694;2022-12-18T07:51:35;27.92;;;14.52;;
38715;SDS011;24833;49.324;8.694;2022-12-18T07:54:02;27.75;;;16.27;;
38715;SDS011;24833;49.324;8.694;2022-12-18T07:56:29;33.58;;;16.60;;
38715;SDS011;24833;49.324;8.694;2022-12-18T07:58:57;27.58;;;14.73;;
38715;SDS011;24833;49.324;8.694;2022-12-18T08:01:25;23.77;;;14.38;;
38715;SDS011;24833;49.324;8.694;2022-12-18T08:03:53;33.45;;;16.83;;
38715;SDS011;24833;49.324;8.694;2022-12-18T08:06:19;28.55;;;15.82;;
38715;SDS011;24833;49.324;8.694;2022-12-18T08:08:53;38.40;;;17.75;;
38715;SDS011;24833;49.324;8.694;2022-12-18T08:11:27;31.45;;;17.95;;
38715;SDS011;24833;49.324;8.694;2022-12-18T08:14:02;27.90;;;14.23;;
38715;SDS011;24833;49.324;8.694;2022-12-18T08:16:29;30.55;;;15.07;;
38715;SDS011;24833;49.324;8.694;2022-12-18T08:18:56;27.48;;;15.68;;
38715;SDS011;24833;49.324;8.694;2022-12-18T08:21:27;26.60;;;14.18;;
38715;SDS011;24833;49.324;8.694;2022-12-18T08:24:00;24.05;;;13.43;;
38715;SDS011;24833;49.324;8.694;2022-12-18T08:26:28;24.17;;;12.55;;
38715;SDS011;24833;49.324;8.694;2022-12-18T08:28:57;31.27;;;15.13;;
38715;SDS011;24833;49.324;8.694;2022-12-18T08:31:26;21.90;;;13.07;;
38715;SDS011;24833;49.324;8.694;2022-12-18T08:33:55;24.65;;;13.85;;
38715;SDS011;24833;49.324;8.694;2022-12-18T08:36:23;30.30;;;15.25;;
38715;SDS011;24833;49.324;8.694;2022-12-18T08:38:52;27.98;;;14.00;;
38715;SDS011;24833;49.324;8.694;2022-12-18T08:41:20;25.25;;;13.05;;
38715;SDS011;24833;49.324;8.694;2022-12-18T08:43:47;33.53;;;17.85;;
38715;SDS011;24833;49.324;8.694;2022-12-18T08:46:39;26.90;;;14.65;;
38715;SDS011;24833;49.324;8.694;2022-12-18T08:49:10;24.33;;;13.60;;
38715;SDS011;24833;49.324;8.694;2022-12-18T08:51:37;25.52;;;14.32;;
38715;SDS011;24833;49.324;8.694;2022-12-18T08:54:05;33.42;;;15.98;;
38715;SDS011;24833;49.324;8.694;2022-12-18T08:56:33;23.27;;;13.32;;
38715;SDS011;24833;49.324;8.694;2022-12-18T08:59:00;29.98;;;15.07;;
38715;SDS011;24833;49.324;8.694;2022-12-18T09:01:27;29.05;;;15.23;;
38715;SDS011;24833;49.324;8.694;2022-12-18T09:03:54;26.02;;;14.73;;
38715;SDS011;24833;49.324;8.694;2022-12-18T09:06:22;27.73;;;14.70;;
38715;SDS011;24833;49.324;8.694;2022-12-18T09:08:49;27.88;;;14.57;;
38715;SDS011;24833;49.324;8.694;2022-12-18T09:11:22;29.35;;;14.25;;
38715;SDS011;24833;49.324;8.694;2022-12-18T09:13:52;34.80;;;16.50;;
38715;SDS011;24833;49.324;8.694;2022-12-18T09:16:20;32.15;;;15.45;;
38715;SDS011;24833;49.324;8.694;2022-12-18T09:18:57;27.77;;;15.23;;
38715;SDS011;24833;49.324;8.694;2022-12-18T09:21:29;34.72;;;17.05;;
38715;SDS011;24833;49.324;8.694;2022-12-18T09:24:02;29.33;;;15.10;;
38715;SDS011;24833;49.324;8.694;2022-12-18T09:26:34;32.28;;;15.98;;
38715;SDS011;24833;49.324;8.694;2022-12-18T09:29:02;28.90;;;16.27;;
38715;SDS011;24833;49.324;8.694;2022-12-18T09:31:29;25.98;;;14.15;;
38715;SDS011;24833;49.324;8.694;2022-12-18T09:33:56;35.05;;;17.20;;
38715;SDS011;24833;49.324;8.694;2022-12-18T09:36:23;31.42;;;16.88;;
38715;SDS011;24833;49.324;8.694;2022-12-18T09:38:50;29.17;;;15.43;;
38715;SDS011;24833;49.324;8.694;2022-12-18T09:44:33;26.58;;;15.23;;
38715;SDS011;24833;49.324;8.694;2022-12-18T09:49:56;27.60;;;14.38;;
38715;SDS011;24833;49.324;8.694;2022-12-18T09:55:05;22.87;;;10.80;;
38715;SDS011;24833;49.324;8.694;2022-12-18T09:57:53;20.85;;;13.07;;
38715;SDS011;24833;49.324;8.694;2022-12-18T10:00:27;31.42;;;16.10;;
38715;SDS011;24833;49.324;8.694;2022-12-18T10:03:01;22.63;;;13.57;;
38715;SDS011;24833;49.324;8.694;2022-12-18T10:08:40;30.75;;;15.43;;
38715;SDS011;24833;49.324;8.694;2022-12-18T10:11:40;27.83;;;13.27;;
38715;SDS011;24833;49.324;8.694;2022-12-18T10:15:07;28.08;;;13.40;;
38715;SDS011;24833;49.324;8.694;2022-12-18T10:17:43;25.83;;;13.68;;
38715;SDS011;24833;49.324;8.694;2022-12-18T10:20:33;29.88;;;15.40;;
38715;SDS011;24833;49.324;8.694;2022-12-18T10:26:13;23.67;;;13.52;;
38715;SDS011;24833;49.324;8.694;2022-12-18T10:28:41;30.50;;;15.10;;
38715;SDS011;24833;49.324;8.694;2022-12-18T10:31:17;34.08;;;15.27;;
38715;SDS011;24833;49.324;8.694;2022-12-18T10:33:50;26.88;;;15.52;;
38715;SDS011;24833;49.324;8.694;2022-12-18T10:36:20;27.20;;;14.73;;
38715;SDS011;24833;49.324;8.694;2022-12-18T10:38:50;32.20;;;15.43;;
38715;SDS011;24833;49.324;8.694;2022-12-18T10:43:51;32.00;;;16.20;;
38715;SDS011;24833;49.324;8.694;2022-12-18T10:46:54;29.45;;;15.77;;
38715;SDS011;24833;49.324;8.694;2022-12-18T10:49:36;30.50;;;16.08;;
38715;SDS011;24833;49.324;8.694;2022-12-18T10:52:21;28.75;;;14.93;;
38715;SDS011;24833;49.324;8.694;2022-12-18T10:54:53;27.35;;;15.98;;
38715;SDS011;24833;49.324;8.694;2022-12-18T11:00:44;27.52;;;14.73;;
38715;SDS011;24833;49.324;8.694;2022-12-18T11:02:56;27.98;;;15.05;;
38715;SDS011;24833;49.324;8.694;2022-12-18T11:05:25;28.38;;;15.98;;
38715;SDS011;24833;49.324;8.694;2022-12-18T11:07:59;31.00;;;16.45;;
38715;SDS011;24833;49.324;8.694;2022-12-18T11:10:35;30.92;;;15.20;;
38715;SDS011;24833;49.324;8.694;2022-12-18T11:13:10;32.03;;;16.55;;
38715;SDS011;24833;49.324;8.694;2022-12-18T11:15:50;29.05;;;15.73;;
38715;SDS011;24833;49.324;8.694;2022-12-18T11:18:28;34.72;;;17.15;;
38715;SDS011;24833;49.324;8.694;2022-12-18T11:21:06;31.00;;;16.38;;
38715;SDS011;24833;49.324;8.694;2022-12-18T11:23:49;37.00;;;17.13;;
38715;SDS011;24833;49.324;8.694;2022-12-18T11:26:19;29.88;;;15.85;;
38715;SDS011;24833;49.324;8.694;2022-12-18T11:28:51;30.58;;;16.02;;
38715;SDS011;24833;49.324;8.694;2022-12-18T11:31:34;30.63;;;16.23;;
38715;SDS011;24833;49.324;8.694;2022-12-18T11:34:11;32.33;;;17.13;;
38715;SDS011;24833;49.324;8.694;2022-12-18T11:36:57;30.48;;;16.60;;
38715;SDS011;24833;49.324;8.694;2022-12-18T11:39:37;28.23;;;15.53;;
38715;SDS011;24833;49.324;8.694;2022-12-18T11:42:13;30.80;;;15.80;;
38715;SDS011;24833;49.324;8.694;2022-12-18T11:47:42;33.47;;;17.17;;
38715;SDS011;24833;49.324;8.694;2022-12-18T11:50:24;30.73;;;17.83;;
38715;SDS011;24833;49.324;8.694;2022-12-18T11:53:12;29.30;;;16.27;;
38715;SDS011;24833;49.324;8.694;2022-12-18T11:55:42;32.95;;;18.00;;
38715;SDS011;24833;49.324;8.694;2022-12-18T11:58:42;32.20;;;16.35;;
38715;SDS011;24833;49.324;8.694;2022-12-18T12:16:03;29.92;;;15.60;;
38715;SDS011;24833;49.324;8.694;2022-12-18T12:24:34;31.27;;;16.88;;
38715;SDS011;24833;49.324;8.694;2022-12-18T12:32:58;32.92;;;17.08;;
38715;SDS011;24833;49.324;8.694;2022-12-18T12:36:05;30.55;;;17.00;;
38715;SDS011;24833;49.324;8.694;2022-12-18T12:39:07;30.88;;;15.32;;
38715;SDS011;24833;49.324;8.694;2022-12-18T12:41:41;32.50;;;17.05;;
38715;SDS011;24833;49.324;8.694;2022-12-18T12:44:30;31.08;;;16.38;;
38715;SDS011;24833;49.324;8.694;2022-12-18T12:47:11;35.28;;;16.95;;
38715;SDS011;24833;49.324;8.694;2022-12-18T12:49:47;28.42;;;14.82;;
38715;SDS011;24833;49.324;8.694;2022-12-18T12:52:28;34.22;;;18.70;;
38715;SDS011;24833;49.324;8.694;2022-12-18T12:55:04;29.13;;;16.27;;
38715;SDS011;24833;49.324;8.694;2022-12-18T12:57:45;31.00;;;15.82;;
38715;SDS011;24833;49.324;8.694;2022-12-18T13:00:39;32.08;;;15.57;;
38715;SDS011;24833;49.324;8.694;2022-12-18T13:03:49;29.13;;;14.57;;
38715;SDS011;24833;49.324;8.694;2022-12-18T13:09:11;26.83;;;15.52;;
38715;SDS011;24833;49.324;8.694;2022-12-18T13:11:40;31.15;;;17.20;;
38715;SDS011;24833;49.324;8.694;2022-12-18T13:14:34;32.28;;;16.10;;
38715;SDS011;24833;49.324;8.694;2022-12-18T13:19:49;28.23;;;15.27;;
38715;SDS011;24833;49.324;8.694;2022-12-18T13:22:20;31.30;;;15.55;;
38715;SDS011;24833;49.324;8.694;2022-12-18T13:25:00;32.22;;;15.77;;
38715;SDS011;24833;49.324;8.694;2022-12-18T13:27:45;29.98;;;16.08;;
38715;SDS011;24833;49.324;8.694;2022-12-18T13:33:34;27.25;;;15.00;;
38715;SDS011;24833;49.324;8.694;2022-12-18T13:38:39;26.58;;;14.85;;
38715;SDS011;24833;49.324;8.694;2022-12-18T13:43:45;23.80;;;14.25;;
38715;SDS011;24833;49.324;8.694;2022-12-18T13:49:00;28.50;;;16.33;;
38715;SDS011;24833;49.324;8.694;2022-12-18T13:51:46;26.98;;;13.15;;
38715;SDS011;24833;49.324;8.694;2022-12-18T13:54:20;24.88;;;13.85;;
38715;SDS011;24833;49.324;8.694;2022-12-18T13:57:03;25.40;;;14.02;;
38715;SDS011;24833;49.324;8.694;2022-12-18T13:59:36;27.42;;;14.50;;
38715;SDS011;24833;49.324;8.694;2022-12-18T14:02:09;26.00;;;14.10;;
38715;SDS011;24833;49.324;8.694;2022-12-18T14:04:47;26.17;;;15.05;;
38715;SDS011;24833;49.324;8.694;2022-12-18T14:07:21;26.70;;;14.55;;
38715;SDS011;24833;49.324;8.694;2022-12-18T14:10:01;25.63;;;14.05;;
38715;SDS011;24833;49.324;8.694;2022-12-18T14:12:51;31.13;;;15.52;;
38715;SDS011;24833;49.324;8.694;2022-12-18T14:17:53;26.40;;;14.00;;
38715;SDS011;24833;49.324;8.694;2022-12-18T14:20:27;28.60;;;14.48;;
38715;SDS011;24833;49.324;8.694;2022-12-18T14:22:58;28.95;;;15.00;;
38715;SDS011;24833;49.324;8.694;2022-12-18T14:25:27;32.30;;;15.65;;
38715;SDS011;24833;49.324;8.694;2022-12-18T14:30:42;28.58;;;15.00;;
38715;SDS011;24833;49.324;8.694;2022-12-18T14:33:12;22.67;;;13.25;;
38715;SDS011;24833;49.324;8.694;2022-12-18T14:41:13;22.95;;;13.27;;
38715;SDS011;24833;49.324;8.694;2022-12-18T14:43:43;27.13;;;13.27;;
38715;SDS011;24833;49.324;8.694;2022-12-18T14:49:14;22.48;;;13.02;;
38715;SDS011;24833;49.324;8.694;2022-12-18T14:52:03;21.40;;;11.55;;
38715;SDS011;24833;49.324;8.694;2022-12-18T14:54:45;24.38;;;13.05;;
38715;SDS011;24833;49.324;8.694;2022-12-18T14:57:28;28.13;;;14.20;;
38715;SDS011;24833;49.324;8.694;2022-12-18T15:00:05;26.37;;;13.27;;
38715;SDS011;24833;49.324;8.694;2022-12-18T15:02:41;26.58;;;13.38;;
38715;SDS011;24833;49.324;8.694;2022-12-18T15:07:40;31.25;;;15.50;;
38715;SDS011;24833;49.324;8.694;2022-12-18T15:18:02;27.45;;;14.60;;
38715;SDS011;24833;49.324;8.694;2022-12-18T15:20:42;29.23;;;14.60;;
38715;SDS011;24833;49.324;8.694;2022-12-18T15:23:23;29.20;;;14.10;;
38715;SDS011;24833;49.324;8.694;2022-12-18T15:28:39;28.58;;;14.70;;
38715;SDS011;24833;49.324;8.694;2022-12-18T15:33:44;20.23;;;10.67;;
38715;SDS011;24833;49.324;8.694;2022-12-18T15:36:29;22.30;;;11.95;;
38715;SDS011;24833;49.324;8.694;2022-12-18T15:38:56;28.13;;;15.98;;
38715;SDS011;24833;49.324;8.694;2022-12-18T15:41:32;31.70;;;15.38;;
38715;SDS011;24833;49.324;8.694;2022-12-18T15:44:03;30.50;;;15.88;;
38715;SDS011;24833;49.324;8.694;2022-12-18T15:46:51;29.90;;;14.85;;
38715;SDS011;24833;49.324;8.694;2022-12-18T15:49:21;29.67;;;15.23;;
38715;SDS011;24833;49.324;8.694;2022-12-18T15:51:52;31.92;;;15.38;;
38715;SDS011;24833;49.324;8.694;2022-12-18T15:54:22;34.15;;;15.95;;
38715;SDS011;24833;49.324;8.694;2022-12-18T15:57:11;30.35;;;14.95;;
38715;SDS011;24833;49.324;8.694;2022-12-18T15:59:51;24.95;;;14.02;;
38715;SDS011;24833;49.324;8.694;2022-12-18T16:02:22;35.13;;;16.35;;
38715;SDS011;24833;49.324;8.694;2022-12-18T16:04:51;27.15;;;15.60;;
38715;SDS011;24833;49.324;8.694;2022-12-18T16:07:20;34.20;;;16.75;;
38715;SDS011;24833;49.324;8.694;2022-12-18T16:09:51;30.88;;;15.85;;
38715;SDS011;24833;49.324;8.694;2022-12-18T16:12:21;27.15;;;14.82;;
38715;SDS011;24833;49.324;8.694;2022-12-18T16:14:50;27.05;;;15.30;;
38715;SDS011;24833;49.324;8.694;2022-12-18T16:17:17;36.72;;;18.52;;
38715;SDS011;24833;49.324;8.694;2022-12-18T16:19:44;29.42;;;14.63;;
38715;SDS011;24833;49.324;8.694;2022-12-18T16:22:25;31.15;;;16.23;;
38715;SDS011;24833;49.324;8.694;2022-12-18T16:24:56;26.27;;;14.10;;
38715;SDS011;24833;49.324;8.694;2022-12-18T16:27:23;31.77;;;16.70;;
38715;SDS011;24833;49.324;8.694;2022-12-18T16:29:51;29.67;;;16.50;;
38715;SDS011;24833;49.324;8.694;2022-12-18T16:32:19;28.05;;;15.98;;
38715;SDS011;24833;49.324;8.694;2022-12-18T16:34:48;26.27;;;13.88;;
38715;SDS011;24833;49.324;8.694;2022-12-18T16:37:16;32.33;;;17.33;;
38715;SDS011;24833;49.324;8.694;2022-12-18T16:39:43;34.88;;;17.20;;
38715;SDS011;24833;49.324;8.694;2022-12-18T16:42:11;36.03;;;15.63;;
38715;SDS011;24833;49.324;8.694;2022-12-18T16:44:45;30.13;;;14.48;;
38715;SDS011;24833;49.324;8.694;2022-12-18T16:47:14;29.80;;;14.73;;
38715;SDS011;24833;49.324;8.694;2022-12-18T16:49:42;31.38;;;15.13;;
38715;SDS011;24833;49.324;8.694;2022-12-18T16:52:15;30.08;;;15.88;;
38715;SDS011;24833;49.324;8.694;2022-12-18T16:54:43;35.78;;;17.77;;
38715;SDS011;24833;49.324;8.694;2022-12-18T16:57:12;32.20;;;17.42;;
38715;SDS011;24833;49.324;8.694;2022-12-18T16:59:41;35.75;;;19.02;;
38715;SDS011;24833;49.324;8.694;2022-12-18T17:02:12;37.60;;;16.20;;
38715;SDS011;24833;49.324;8.694;2022-12-18T17:04:51;30.13;;;16.38;;
38715;SDS011;24833;49.324;8.694;2022-12-18T17:07:20;30.27;;;15.88;;
38715;SDS011;24833;49.324;8.694;2022-12-18T17:09:47;33.97;;;15.90;;